Time;durP1;ratioP1;P1;durP2;ratioP2;P2;SDS_P1;SDS_P2;PMS_P1;PMS_P2;Temp;Humidity;BMP_temperature;BMP_pressure;BME280_temperature;BME280_humidity;BME280_pressure;Samples;Min_cycle;Max_cycle;Signal;HPM_P1;HPM_P2
2023/08/02 00:01:55;;;;;;;4.80;2.40;;;;;;;;;;5130059;27;20059;-61
2023/08/02 00:04:22;;;;;;;7.78;3.10;;;;;;;;;;5129247;27;20168;-60
2023/08/02 00:06:50;;;;;;;9.63;2.75;;;;;;;;;;5130682;27;20383;-60
2023/08/02 00:09:17;;;;;;;7.28;2.90;;;;;;;;;;5131153;27;20051;-61
2023/08/02 00:11:46;;;;;;;7.63;2.50;;;;;;;;;;5124679;27;20051;-61
2023/08/02 00:14:14;;;;;;;5.35;2.47;;;;;;;;;;5131682;27;20051;-61
2023/08/02 00:16:43;;;;;;;6.47;2.35;;;;;;;;;;5131079;27;20051;-61
2023/08/02 00:19:12;;;;;;;5.03;2.70;;;;;;;;;;5130052;27;20415;-61
2023/08/02 00:21:42;;;;;;;7.45;2.30;;;;;;;;;;5117563;27;20055;-61
2023/08/02 00:24:08;;;;;;;5.80;2.65;;;;;;;;;;5131530;27;20415;-61
2023/08/02 00:26:35;;;;;;;10.10;2.35;;;;;;;;;;5128387;27;20058;-61
2023/08/02 00:29:02;;;;;;;5.13;2.47;;;;;;;;;;5130633;27;20051;-61
2023/08/02 00:31:30;;;;;;;7.43;2.53;;;;;;;;;;5122907;27;20055;-61
2023/08/02 00:33:57;;;;;;;5.18;2.47;;;;;;;;;;5129016;27;20047;-61
2023/08/02 00:36:24;;;;;;;6.78;2.53;;;;;;;;;;5130708;27;20051;-61
2023/08/02 00:38:53;;;;;;;4.47;2.53;;;;;;;;;;5126772;27;20054;-62
2023/08/02 00:41:20;;;;;;;6.60;2.88;;;;;;;;;;5128119;28;20051;-61
2023/08/02 00:43:47;;;;;;;7.35;2.72;;;;;;;;;;5132868;28;20059;-62
2023/08/02 00:46:15;;;;;;;4.40;2.55;;;;;;;;;;5130982;28;20051;-61
2023/08/02 00:48:43;;;;;;;6.72;2.55;;;;;;;;;;5126929;28;20055;-61
2023/08/02 00:51:12;;;;;;;5.10;2.30;;;;;;;;;;5104522;28;20412;-61
2023/08/02 00:53:39;;;;;;;5.07;2.55;;;;;;;;;;5124093;28;20404;-61
2023/08/02 00:56:08;;;;;;;7.25;2.35;;;;;;;;;;5126338;28;20048;-61
2023/08/02 00:58:34;;;;;;;6.93;2.38;;;;;;;;;;5131607;28;20059;-61
2023/08/02 01:01:07;;;;;;;5.53;2.20;;;;;;;;;;5132157;28;20059;-61
2023/08/02 01:03:34;;;;;;;9.43;2.53;;;;;;;;;;5126880;28;20061;-61
2023/08/02 01:06:04;;;;;;;5.60;2.22;;;;;;;;;;5125064;27;20464;-61
2023/08/02 01:08:34;;;;;;;3.92;1.80;;;;;;;;;;5127801;28;20058;-61
2023/08/02 01:11:04;;;;;;;6.75;2.50;;;;;;;;;;5118426;28;20377;-58
2023/08/02 01:13:33;;;;;;;4.28;1.90;;;;;;;;;;5128134;28;20058;-61
2023/08/02 01:16:04;;;;;;;5.95;2.08;;;;;;;;;;5130884;28;20363;-61
2023/08/02 01:18:30;;;;;;;3.70;2.00;;;;;;;;;;5096263;28;20047;-61
2023/08/02 01:20:59;;;;;;;4.18;2.30;;;;;;;;;;5117068;28;20059;-59
2023/08/02 01:23:26;;;;;;;5.32;2.25;;;;;;;;;;5129316;28;20539;-61
2023/08/02 01:25:54;;;;;;;4.18;2.03;;;;;;;;;;5131148;28;20411;-60
2023/08/02 01:28:22;;;;;;;5.72;2.05;;;;;;;;;;5124944;28;20048;-61
2023/08/02 01:30:53;;;;;;;4.85;2.20;;;;;;;;;;5091961;28;20048;-60
2023/08/02 01:33:21;;;;;;;7.35;2.33;;;;;;;;;;5123083;27;20084;-60
2023/08/02 01:35:48;;;;;;;5.43;1.95;;;;;;;;;;5135064;27;20047;-61
2023/08/02 01:38:18;;;;;;;6.93;2.22;;;;;;;;;;5135482;27;20047;-60
2023/08/02 01:40:45;;;;;;;5.30;2.20;;;;;;;;;;5116320;27;20051;-61
2023/08/02 01:43:12;;;;;;;6.65;2.03;;;;;;;;;;5130260;27;20055;-61
2023/08/02 01:45:39;;;;;;;5.07;2.30;;;;;;;;;;5133454;27;20050;-61
2023/08/02 01:48:06;;;;;;;6.10;2.00;;;;;;;;;;5129402;27;20054;-61
2023/08/02 01:50:32;;;;;;;5.43;2.00;;;;;;;;;;5116078;27;20063;-61
2023/08/02 01:52:59;;;;;;;5.70;2.50;;;;;;;;;;5115598;28;20051;-60
2023/08/02 01:55:27;;;;;;;4.93;2.20;;;;;;;;;;5115275;28;20052;-61
2023/08/02 01:57:54;;;;;;;7.55;2.00;;;;;;;;;;5115351;28;20043;-61
2023/08/02 02:00:21;;;;;;;4.40;2.05;;;;;;;;;;5115434;28;20051;-60
2023/08/02 02:02:48;;;;;;;5.38;1.90;;;;;;;;;;5122006;27;20058;-61
2023/08/02 02:05:14;;;;;;;7.72;2.47;;;;;;;;;;5134661;27;20499;-61
2023/08/02 02:07:41;;;;;;;3.85;1.95;;;;;;;;;;5128216;27;20048;-61
2023/08/02 02:10:08;;;;;;;5.28;2.63;;;;;;;;;;5128663;27;20051;-61
2023/08/02 02:12:36;;;;;;;5.05;2.45;;;;;;;;;;5135069;27;20051;-61
2023/08/02 02:15:03;;;;;;;4.72;2.70;;;;;;;;;;5130295;27;20058;-61
2023/08/02 02:17:30;;;;;;;5.03;2.30;;;;;;;;;;5136047;27;20066;-61
2023/08/02 02:19:57;;;;;;;3.97;2.00;;;;;;;;;;5125344;27;20055;-60
2023/08/02 02:22:24;;;;;;;4.85;2.30;;;;;;;;;;5130038;27;20051;-61
2023/08/02 02:24:50;;;;;;;4.53;2.38;;;;;;;;;;5134439;27;20050;-59
2023/08/02 02:27:17;;;;;;;7.10;2.60;;;;;;;;;;5134498;27;20055;-60
2023/08/02 02:29:45;;;;;;;8.45;2.55;;;;;;;;;;5127187;27;20399;-61
2023/08/02 02:32:12;;;;;;;5.45;2.53;;;;;;;;;;5134965;27;20055;-61
2023/08/02 02:34:39;;;;;;;4.78;2.30;;;;;;;;;;5121891;27;20059;-61
2023/08/02 02:37:06;;;;;;;5.35;2.15;;;;;;;;;;5128317;27;20062;-61
2023/08/02 02:39:33;;;;;;;4.53;2.90;;;;;;;;;;5119802;27;20047;-61
2023/08/02 02:42:00;;;;;;;6.40;2.75;;;;;;;;;;5107221;27;20071;-61
2023/08/02 02:44:39;;;;;;;6.82;2.88;;;;;;;;;;5097482;28;20470;-61
2023/08/02 02:47:07;;;;;;;5.60;2.80;;;;;;;;;;5118272;27;20414;-61
2023/08/02 02:49:34;;;;;;;5.32;2.83;;;;;;;;;;5128849;27;20048;-61
2023/08/02 02:52:01;;;;;;;4.40;2.20;;;;;;;;;;5119824;27;20047;-60
2023/08/02 02:54:27;;;;;;;7.80;3.05;;;;;;;;;;5114223;28;20512;-60
2023/08/02 02:56:54;;;;;;;5.97;2.50;;;;;;;;;;5103257;28;20048;-61
2023/08/02 02:59:21;;;;;;;4.93;2.33;;;;;;;;;;5115236;27;20055;-61
2023/08/02 03:01:48;;;;;;;6.05;2.50;;;;;;;;;;5127400;27;20050;-61
2023/08/02 03:04:16;;;;;;;5.97;2.60;;;;;;;;;;5130604;27;20475;-60
2023/08/02 03:06:43;;;;;;;4.05;2.50;;;;;;;;;;5119595;27;20058;-61
2023/08/02 03:09:09;;;;;;;3.60;2.00;;;;;;;;;;5117812;27;20039;-61
2023/08/02 03:11:36;;;;;;;4.93;2.40;;;;;;;;;;5133537;27;20047;-61
2023/08/02 03:14:04;;;;;;;5.80;2.45;;;;;;;;;;5134650;27;20384;-60
2023/08/02 03:16:31;;;;;;;4.15;2.15;;;;;;;;;;5127346;27;20487;-60
2023/08/02 03:18:58;;;;;;;3.88;2.05;;;;;;;;;;5102197;27;20059;-61
2023/08/02 03:21:26;;;;;;;4.43;2.00;;;;;;;;;;5117309;27;20050;-61
2023/08/02 03:23:56;;;;;;;4.43;1.88;;;;;;;;;;5127635;27;20467;-61
2023/08/02 03:26:25;;;;;;;4.90;1.83;;;;;;;;;;5134436;27;20480;-60
2023/08/02 03:28:52;;;;;;;5.18;1.95;;;;;;;;;;5129955;27;20043;-60
2023/08/02 03:31:19;;;;;;;6.55;2.47;;;;;;;;;;5100596;27;20051;-61
2023/08/02 03:33:46;;;;;;;4.50;2.00;;;;;;;;;;5110590;28;20051;-61
2023/08/02 03:36:13;;;;;;;5.80;2.00;;;;;;;;;;5112487;28;20047;-61
2023/08/02 03:38:41;;;;;;;7.40;3.10;;;;;;;;;;5110260;28;20048;-60
2023/08/02 03:41:11;;;;;;;3.70;2.10;;;;;;;;;;5073150;28;20056;-61
2023/08/02 03:43:38;;;;;;;3.50;2.00;;;;;;;;;;5078529;28;20047;-61
2023/08/02 03:46:07;;;;;;;5.85;2.38;;;;;;;;;;5109463;28;20069;-60
2023/08/02 03:48:36;;;;;;;5.03;2.25;;;;;;;;;;5109839;28;20400;-60
2023/08/02 03:51:03;;;;;;;5.20;1.90;;;;;;;;;;5103385;28;20404;-61
2023/08/02 03:53:32;;;;;;;3.53;1.92;;;;;;;;;;5109094;28;20063;-61
2023/08/02 03:56:00;;;;;;;3.75;1.80;;;;;;;;;;5103372;28;20052;-60
2023/08/02 03:58:30;;;;;;;3.45;1.83;;;;;;;;;;5109131;28;20047;-61
2023/08/02 04:00:59;;;;;;;6.10;1.92;;;;;;;;;;5105485;28;20063;-61
2023/08/02 04:03:29;;;;;;;3.55;2.00;;;;;;;;;;5109140;28;20047;-57
2023/08/02 04:05:56;;;;;;;3.42;1.60;;;;;;;;;;5108374;28;20366;-61
2023/08/02 04:08:22;;;;;;;4.07;1.80;;;;;;;;;;5111933;28;20456;-60
2023/08/02 04:10:49;;;;;;;5.75;2.00;;;;;;;;;;5093112;28;20489;-61
2023/08/02 04:13:17;;;;;;;3.85;2.33;;;;;;;;;;5072768;28;20053;-61
2023/08/02 04:15:44;;;;;;;5.28;2.10;;;;;;;;;;5087981;28;20048;-61
2023/08/02 04:18:11;;;;;;;6.25;2.15;;;;;;;;;;5105593;28;20051;-61
2023/08/02 04:20:39;;;;;;;3.80;2.00;;;;;;;;;;5099775;28;20059;-60
2023/08/02 04:23:06;;;;;;;3.47;1.75;;;;;;;;;;5110059;28;20047;-61
2023/08/02 04:25:33;;;;;;;4.05;1.85;;;;;;;;;;5111460;28;20048;-61
2023/08/02 04:27:59;;;;;;;3.67;1.90;;;;;;;;;;5111462;28;20416;-60
2023/08/02 04:30:27;;;;;;;4.38;2.10;;;;;;;;;;5110713;28;20051;-61
2023/08/02 04:32:55;;;;;;;4.88;2.13;;;;;;;;;;5103279;28;20432;-61
2023/08/02 04:35:22;;;;;;;6.63;2.33;;;;;;;;;;5106761;28;20058;-60
2023/08/02 04:37:48;;;;;;;5.57;2.50;;;;;;;;;;5109610;28;20072;-61
2023/08/02 04:40:15;;;;;;;6.70;1.90;;;;;;;;;;5110739;28;20047;-60
2023/08/02 04:42:42;;;;;;;5.38;2.10;;;;;;;;;;5093367;28;20051;-61
2023/08/02 04:45:09;;;;;;;4.55;1.98;;;;;;;;;;5112335;28;20051;-61
2023/08/02 04:47:38;;;;;;;3.80;1.85;;;;;;;;;;5108842;28;20415;-60
2023/08/02 04:50:05;;;;;;;5.70;1.90;;;;;;;;;;5097606;28;20052;-61
2023/08/02 04:52:32;;;;;;;3.33;2.10;;;;;;;;;;5091654;28;20056;-60
2023/08/02 04:54:59;;;;;;;3.15;1.80;;;;;;;;;;5091950;28;20094;-61
2023/08/02 04:57:26;;;;;;;3.35;1.73;;;;;;;;;;5092267;28;20052;-61
2023/08/02 04:59:53;;;;;;;5.13;2.45;;;;;;;;;;5092161;28;20055;-61
2023/08/02 05:02:20;;;;;;;3.30;1.60;;;;;;;;;;5092289;28;20055;-61
2023/08/02 05:04:53;;;;;;;3.58;1.70;;;;;;;;;;5101779;28;20055;-60
2023/08/02 05:07:20;;;;;;;5.57;1.92;;;;;;;;;;5113697;28;20387;-60
2023/08/02 05:09:47;;;;;;;3.42;2.10;;;;;;;;;;5094738;28;20045;-60
2023/08/02 05:12:13;;;;;;;3.28;2.08;;;;;;;;;;5096427;28;20056;-60
2023/08/02 05:14:40;;;;;;;2.90;1.70;;;;;;;;;;5096810;28;20050;-61
2023/08/02 05:17:07;;;;;;;4.35;2.38;;;;;;;;;;5101205;28;20056;-60
2023/08/02 05:19:34;;;;;;;4.85;2.33;;;;;;;;;;5102581;28;20051;-60
2023/08/02 05:22:02;;;;;;;4.75;1.80;;;;;;;;;;5095321;28;20126;-61
2023/08/02 05:24:29;;;;;;;4.65;2.50;;;;;;;;;;5098315;28;20055;-61
2023/08/02 05:26:56;;;;;;;3.35;2.10;;;;;;;;;;5090078;28;20068;-58
2023/08/02 05:29:22;;;;;;;4.72;1.98;;;;;;;;;;5099434;28;20519;-61
2023/08/02 05:31:49;;;;;;;3.70;2.00;;;;;;;;;;5098800;28;20058;-61
2023/08/02 05:34:16;;;;;;;4.93;2.10;;;;;;;;;;5109050;28;20062;-61
2023/08/02 05:36:43;;;;;;;5.28;2.20;;;;;;;;;;5112862;27;20070;-60
2023/08/02 05:39:11;;;;;;;6.35;2.67;;;;;;;;;;5118498;27;20047;-61
2023/08/02 05:41:38;;;;;;;4.15;2.15;;;;;;;;;;5119852;27;20039;-60
2023/08/02 05:44:05;;;;;;;4.50;2.20;;;;;;;;;;5116807;27;20464;-60
2023/08/02 05:46:31;;;;;;;5.22;2.28;;;;;;;;;;5115462;27;20047;-60
2023/08/02 05:48:58;;;;;;;3.90;2.10;;;;;;;;;;5115546;27;20487;-61
2023/08/02 05:51:25;;;;;;;4.25;2.63;;;;;;;;;;5114304;28;20047;-61
2023/08/02 05:53:52;;;;;;;3.20;2.00;;;;;;;;;;5112241;28;20496;-60
2023/08/02 05:56:20;;;;;;;6.68;2.50;;;;;;;;;;5111921;28;20483;-61
2023/08/02 05:58:46;;;;;;;4.18;2.08;;;;;;;;;;5111652;28;20048;-61
2023/08/02 06:01:13;;;;;;;3.42;1.98;;;;;;;;;;5107331;28;20123;-60
2023/08/02 06:03:40;;;;;;;5.03;2.60;;;;;;;;;;5110763;28;20052;-60
2023/08/02 06:06:07;;;;;;;4.18;2.67;;;;;;;;;;5109220;28;20051;-61
2023/08/02 06:08:34;;;;;;;4.85;2.67;;;;;;;;;;5112876;28;20048;-61
2023/08/02 06:11:01;;;;;;;4.60;2.60;;;;;;;;;;5114205;27;20051;-60
2023/08/02 06:13:29;;;;;;;4.07;2.55;;;;;;;;;;5113831;27;20052;-61
2023/08/02 06:15:55;;;;;;;6.13;2.70;;;;;;;;;;5111766;28;21678;-60
2023/08/02 06:18:22;;;;;;;3.78;2.15;;;;;;;;;;5102916;28;20048;-61
2023/08/02 06:20:49;;;;;;;5.45;2.53;;;;;;;;;;5111995;27;20048;-61
2023/08/02 06:23:16;;;;;;;4.78;2.30;;;;;;;;;;5111119;27;20060;-59
2023/08/02 06:25:42;;;;;;;7.20;2.47;;;;;;;;;;5114245;27;20065;-60
2023/08/02 06:28:09;;;;;;;8.15;2.70;;;;;;;;;;5110079;27;20055;-59
2023/08/02 06:30:37;;;;;;;4.78;2.63;;;;;;;;;;5119213;27;20055;-59
2023/08/02 06:33:04;;;;;;;6.53;3.10;;;;;;;;;;5114758;27;20047;-60
2023/08/02 06:35:31;;;;;;;4.65;2.75;;;;;;;;;;5115059;27;20062;-60
2023/08/02 06:37:58;;;;;;;5.00;2.83;;;;;;;;;;5111404;27;20059;-61
2023/08/02 06:40:25;;;;;;;5.25;2.83;;;;;;;;;;5112419;27;20068;-60
2023/08/02 06:42:51;;;;;;;4.63;3.00;;;;;;;;;;5110236;27;20046;-63
2023/08/02 06:45:18;;;;;;;5.55;2.50;;;;;;;;;;5105767;27;20421;-64
2023/08/02 06:47:46;;;;;;;6.30;3.10;;;;;;;;;;5108026;27;20504;-63
2023/08/02 06:50:13;;;;;;;5.57;3.10;;;;;;;;;;5106650;27;20055;-63
2023/08/02 06:52:40;;;;;;;6.30;2.80;;;;;;;;;;5105629;27;20047;-63
2023/08/02 06:55:07;;;;;;;5.30;3.10;;;;;;;;;;5112054;27;20407;-64
2023/08/02 06:57:34;;;;;;;4.82;2.97;;;;;;;;;;5106384;27;20059;-63
2023/08/02 07:00:01;;;;;;;5.53;3.28;;;;;;;;;;5104902;27;20056;-63
2023/08/02 07:02:27;;;;;;;4.88;2.58;;;;;;;;;;5108812;27;20117;-63
2023/08/02 07:04:56;;;;;;;5.32;3.38;;;;;;;;;;5102227;27;20051;-64
2023/08/02 07:07:22;;;;;;;5.38;2.70;;;;;;;;;;5104201;27;20059;-64
2023/08/02 07:09:49;;;;;;;5.32;2.88;;;;;;;;;;5112008;27;20058;-64
2023/08/02 07:12:16;;;;;;;4.82;3.08;;;;;;;;;;5111088;27;20055;-64
2023/08/02 07:14:43;;;;;;;5.25;2.35;;;;;;;;;;5106931;28;20387;-65
2023/08/02 07:17:09;;;;;;;4.13;2.10;;;;;;;;;;5107901;27;20056;-63
2023/08/02 07:19:36;;;;;;;3.90;2.83;;;;;;;;;;5111966;27;20051;-64
2023/08/02 07:22:04;;;;;;;5.60;2.58;;;;;;;;;;5104107;28;20060;-64
2023/08/02 07:24:30;;;;;;;3.30;2.25;;;;;;;;;;5107893;27;20074;-64
2023/08/02 07:26:57;;;;;;;3.55;2.13;;;;;;;;;;5108481;27;20062;-63
2023/08/02 07:29:24;;;;;;;5.05;2.20;;;;;;;;;;5105367;27;20051;-63
2023/08/02 07:31:51;;;;;;;4.53;2.22;;;;;;;;;;5101750;27;20071;-63
2023/08/02 07:34:18;;;;;;;3.67;1.80;;;;;;;;;;5100320;28;20392;-64
2023/08/02 07:36:45;;;;;;;3.00;1.90;;;;;;;;;;5099192;28;20055;-64
2023/08/02 07:39:13;;;;;;;2.58;1.70;;;;;;;;;;5100234;28;20051;-63
2023/08/02 07:41:41;;;;;;;2.50;1.60;;;;;;;;;;5101703;28;20051;-63
2023/08/02 07:44:06;;;;;;;2.80;1.67;;;;;;;;;;5098167;28;20047;-64
2023/08/02 07:46:33;;;;;;;3.30;1.60;;;;;;;;;;5100258;28;20050;-62
2023/08/02 07:49:00;;;;;;;2.75;1.50;;;;;;;;;;5099311;27;20048;-64
2023/08/02 07:51:27;;;;;;;1.95;1.40;;;;;;;;;;5095201;28;20070;-64
2023/08/02 07:53:53;;;;;;;2.63;1.60;;;;;;;;;;5095629;28;20051;-64
2023/08/02 07:56:22;;;;;;;2.08;1.20;;;;;;;;;;5098662;28;20047;-64
2023/08/02 07:58:48;;;;;;;2.28;1.35;;;;;;;;;;5091873;28;20044;-64
2023/08/02 08:01:15;;;;;;;1.40;1.05;;;;;;;;;;5099187;28;20055;-64
2023/08/02 08:03:42;;;;;;;1.85;1.00;;;;;;;;;;5094591;28;20059;-59
2023/08/02 08:06:09;;;;;;;2.53;0.90;;;;;;;;;;5103103;28;20051;-60
2023/08/02 08:08:36;;;;;;;0.80;0.63;;;;;;;;;;5106776;28;20047;-60
2023/08/02 08:11:03;;;;;;;1.20;0.75;;;;;;;;;;5094142;28;20048;-62
2023/08/02 08:13:31;;;;;;;1.30;0.80;;;;;;;;;;5105386;28;20496;-64
2023/08/02 08:15:58;;;;;;;2.15;1.10;;;;;;;;;;5099939;28;20063;-63
2023/08/02 08:18:25;;;;;;;1.67;0.90;;;;;;;;;;5100687;28;20059;-63
2023/08/02 08:20:52;;;;;;;1.38;0.90;;;;;;;;;;5098868;28;20047;-63
2023/08/02 08:23:18;;;;;;;1.20;0.70;;;;;;;;;;5098567;28;20056;-60
2023/08/02 08:25:45;;;;;;;2.13;0.80;;;;;;;;;;5096050;28;20051;-63
2023/08/02 08:28:12;;;;;;;1.30;0.70;;;;;;;;;;5101289;28;20059;-61
2023/08/02 08:30:40;;;;;;;1.88;0.70;;;;;;;;;;5111745;28;20052;-64
2023/08/02 08:33:07;;;;;;;1.15;0.77;;;;;;;;;;5121140;27;20047;-59
2023/08/02 08:35:34;;;;;;;1.98;0.68;;;;;;;;;;5126744;27;20058;-59
2023/08/02 08:38:01;;;;;;;1.02;0.60;;;;;;;;;;5125054;27;20044;-59
2023/08/02 08:40:28;;;;;;;1.15;0.75;;;;;;;;;;5119611;27;20043;-59
2023/08/02 08:42:56;;;;;;;1.00;0.63;;;;;;;;;;5125918;27;20066;-59
2023/08/02 08:45:23;;;;;;;2.17;0.77;;;;;;;;;;5121519;27;20055;-59
2023/08/02 08:47:52;;;;;;;1.20;0.68;;;;;;;;;;5117559;28;20067;-58
2023/08/02 08:50:22;;;;;;;2.17;0.90;;;;;;;;;;5104616;28;20082;-59
2023/08/02 08:52:50;;;;;;;1.77;0.90;;;;;;;;;;5114184;28;20063;-59
2023/08/02 08:55:17;;;;;;;1.85;0.85;;;;;;;;;;5113563;28;20051;-59
2023/08/02 08:57:45;;;;;;;1.42;0.88;;;;;;;;;;5124374;28;20047;-63
2023/08/02 09:00:13;;;;;;;1.30;0.85;;;;;;;;;;5118394;28;20404;-63
2023/08/02 09:02:40;;;;;;;2.08;0.93;;;;;;;;;;5122770;28;20047;-62
2023/08/02 09:05:09;;;;;;;1.67;0.98;;;;;;;;;;5113560;28;20043;-63
2023/08/02 09:07:36;;;;;;;3.15;1.00;;;;;;;;;;5107384;28;20480;-63
2023/08/02 09:10:03;;;;;;;2.08;1.45;;;;;;;;;;5110707;28;20056;-62
2023/08/02 09:12:30;;;;;;;1.67;1.02;;;;;;;;;;5114358;28;20051;-63
2023/08/02 09:15:00;;;;;;;1.90;1.10;;;;;;;;;;5110489;28;20055;-63
2023/08/02 09:17:27;;;;;;;2.80;0.80;;;;;;;;;;5124515;28;20411;-63
2023/08/02 09:20:07;;;;;;;2.88;1.10;;;;;;;;;;5115745;28;20707;-61
2023/08/02 09:22:35;;;;;;;2.40;1.00;;;;;;;;;;5118860;28;20050;-62
2023/08/02 09:25:03;;;;;;;2.15;1.00;;;;;;;;;;5109473;28;20475;-61
2023/08/02 09:27:31;;;;;;;2.03;1.00;;;;;;;;;;5120315;28;20503;-63
2023/08/02 09:29:57;;;;;;;1.77;0.90;;;;;;;;;;5120134;28;20056;-63
2023/08/02 09:32:25;;;;;;;1.83;1.00;;;;;;;;;;5118217;28;20067;-63
2023/08/02 09:34:53;;;;;;;1.50;0.88;;;;;;;;;;5110952;28;20058;-62
2023/08/02 09:37:28;;;;;;;1.60;0.98;;;;;;;;;;5107710;28;20058;-63
2023/08/02 09:39:56;;;;;;;1.50;0.80;;;;;;;;;;5109780;28;20054;-63
2023/08/02 09:42:25;;;;;;;1.30;0.82;;;;;;;;;;5107999;28;20046;-63
2023/08/02 09:44:53;;;;;;;1.15;0.70;;;;;;;;;;5125529;28;20058;-62
2023/08/02 09:47:20;;;;;;;6.13;1.00;;;;;;;;;;5112633;28;20052;-60
2023/08/02 09:50:01;;;;;;;1.45;0.63;;;;;;;;;;5110044;28;20051;-59
2023/08/02 09:52:28;;;;;;;1.00;0.60;;;;;;;;;;5109388;28;20039;-63
2023/08/02 09:54:55;;;;;;;1.00;0.50;;;;;;;;;;5113114;27;20044;-63
2023/08/02 09:57:25;;;;;;;1.00;0.45;;;;;;;;;;5114949;28;20043;-63
2023/08/02 09:59:52;;;;;;;1.08;0.50;;;;;;;;;;5117654;27;20047;-63
2023/08/02 10:02:20;;;;;;;1.10;0.57;;;;;;;;;;5113921;27;20054;-63
2023/08/02 10:04:47;;;;;;;0.90;0.50;;;;;;;;;;5120682;27;20052;-63
2023/08/02 10:07:15;;;;;;;1.17;0.70;;;;;;;;;;5117875;27;20063;-63
2023/08/02 10:09:42;;;;;;;1.00;0.50;;;;;;;;;;5114763;27;20074;-64
2023/08/02 10:12:10;;;;;;;1.40;0.70;;;;;;;;;;5111846;27;20048;-63
2023/08/02 10:14:38;;;;;;;1.63;0.32;;;;;;;;;;5117713;27;20051;-63
2023/08/02 10:17:04;;;;;;;2.63;0.50;;;;;;;;;;5116952;27;20500;-63
2023/08/02 10:19:33;;;;;;;8.48;1.60;;;;;;;;;;5114066;27;20047;-59
2023/08/02 10:22:00;;;;;;;0.57;0.30;;;;;;;;;;5114128;27;20043;-59
2023/08/02 10:24:27;;;;;;;1.15;0.30;;;;;;;;;;5109868;28;20393;-59
2023/08/02 10:26:55;;;;;;;0.82;0.40;;;;;;;;;;5109056;28;20055;-60
2023/08/02 10:29:22;;;;;;;2.42;0.40;;;;;;;;;;5119992;27;20514;-59
2023/08/02 10:31:50;;;;;;;0.60;0.22;;;;;;;;;;5117549;27;20040;-59
2023/08/02 10:34:36;;;;;;;1.45;0.40;;;;;;;;;;5106611;27;20070;-59
2023/08/02 10:37:02;;;;;;;3.42;0.52;;;;;;;;;;5114713;27;20058;-59
2023/08/02 10:39:44;;;;;;;1.33;0.50;;;;;;;;;;5119715;27;20056;-60
2023/08/02 10:42:11;;;;;;;0.90;0.40;;;;;;;;;;5115203;27;20043;-59
2023/08/02 10:44:37;;;;;;;1.00;0.50;;;;;;;;;;5109985;27;20048;-59
2023/08/02 10:47:34;;;;;;;0.88;0.40;;;;;;;;;;5112266;27;20055;-59
2023/08/02 10:50:03;;;;;;;3.33;0.50;;;;;;;;;;5040848;28;20124;-59
2023/08/02 10:52:31;;;;;;;0.85;0.35;;;;;;;;;;5096860;27;20059;-59
2023/08/02 10:55:04;;;;;;;0.65;0.30;;;;;;;;;;5120229;27;20051;-58
2023/08/02 10:57:31;;;;;;;1.05;0.30;;;;;;;;;;5111087;27;20554;-59
2023/08/02 10:59:58;;;;;;;0.65;0.30;;;;;;;;;;5111277;27;20071;-59
2023/08/02 11:02:25;;;;;;;1.10;0.20;;;;;;;;;;5125313;27;20039;-59
2023/08/02 11:04:52;;;;;;;1.20;0.40;;;;;;;;;;5107137;28;20051;-60
2023/08/02 11:07:21;;;;;;;0.50;0.15;;;;;;;;;;5107692;28;20051;-59
2023/08/02 11:09:51;;;;;;;0.57;0.30;;;;;;;;;;5104173;27;20048;-60
2023/08/02 11:12:21;;;;;;;0.22;0.20;;;;;;;;;;5105263;28;20050;-59
2023/08/02 11:14:50;;;;;;;0.63;0.20;;;;;;;;;;5107807;28;20051;-64
2023/08/02 11:17:18;;;;;;;0.73;0.30;;;;;;;;;;5109235;28;20062;-63
2023/08/02 11:19:46;;;;;;;0.63;0.30;;;;;;;;;;5113330;28;20058;-64
2023/08/02 11:22:13;;;;;;;1.95;0.22;;;;;;;;;;5113704;27;20372;-64
2023/08/02 11:24:44;;;;;;;0.55;0.20;;;;;;;;;;5115123;27;20067;-59
2023/08/02 11:27:17;;;;;;;0.77;0.30;;;;;;;;;;5113273;28;20048;-59
2023/08/02 11:29:56;;;;;;;1.00;0.38;;;;;;;;;;5113253;28;20408;-59
2023/08/02 11:32:23;;;;;;;4.00;0.30;;;;;;;;;;5112461;27;20064;-59
2023/08/02 11:34:50;;;;;;;0.40;0.20;;;;;;;;;;5112050;28;20059;-59
2023/08/02 11:37:16;;;;;;;0.43;0.30;;;;;;;;;;5110191;27;20054;-59
2023/08/02 11:39:52;;;;;;;0.60;0.32;;;;;;;;;;5112764;28;20047;-59
2023/08/02 11:42:18;;;;;;;0.57;0.30;;;;;;;;;;5113582;28;20052;-59
2023/08/02 11:44:45;;;;;;;0.38;0.20;;;;;;;;;;5113498;28;20066;-59
2023/08/02 11:47:12;;;;;;;0.47;0.22;;;;;;;;;;5112145;28;20055;-59
2023/08/02 11:49:48;;;;;;;0.75;0.35;;;;;;;;;;5113343;28;20051;-63
2023/08/02 11:52:24;;;;;;;0.50;0.40;;;;;;;;;;5112789;28;20051;-63
2023/08/02 11:54:52;;;;;;;0.50;0.30;;;;;;;;;;5112275;28;20055;-52
2023/08/02 11:57:19;;;;;;;1.63;0.40;;;;;;;;;;5112370;27;20051;-54
2023/08/02 11:59:47;;;;;;;0.77;0.40;;;;;;;;;;5113332;28;20060;-52
2023/08/02 12:02:26;;;;;;;0.43;0.25;;;;;;;;;;5109710;27;20043;-52
2023/08/02 12:04:53;;;;;;;1.63;0.40;;;;;;;;;;5127897;27;20062;-52
2023/08/02 12:07:26;;;;;;;0.93;0.40;;;;;;;;;;5127461;27;20044;-50
2023/08/02 12:09:54;;;;;;;1.08;0.30;;;;;;;;;;5112241;28;20515;-52
2023/08/02 12:12:21;;;;;;;0.60;0.10;;;;;;;;;;5110725;27;20405;-53
2023/08/02 12:14:48;;;;;;;0.60;0.30;;;;;;;;;;5115194;27;20054;-50
2023/08/02 12:17:18;;;;;;;1.02;0.20;;;;;;;;;;5131169;27;20062;-45
2023/08/02 12:19:45;;;;;;;1.15;0.30;;;;;;;;;;5112029;28;20044;-49
2023/08/02 12:22:12;;;;;;;0.50;0.10;;;;;;;;;;5109456;27;20058;-51
2023/08/02 12:24:39;;;;;;;0.40;0.30;;;;;;;;;;5112661;28;20059;-52
2023/08/02 12:27:14;;;;;;;0.40;0.30;;;;;;;;;;5112248;27;20058;-50
2023/08/02 12:29:42;;;;;;;0.65;0.30;;;;;;;;;;5112628;28;20056;-51
2023/08/02 12:32:09;;;;;;;1.00;0.50;;;;;;;;;;5111465;28;20055;-51
2023/08/02 12:34:37;;;;;;;0.88;0.30;;;;;;;;;;5112532;28;20100;-50
2023/08/02 12:37:04;;;;;;;0.35;0.30;;;;;;;;;;5111996;28;20055;-50
2023/08/02 12:39:31;;;;;;;0.68;0.35;;;;;;;;;;5112262;28;20051;-49
2023/08/02 12:41:58;;;;;;;0.77;0.40;;;;;;;;;;5112153;28;20047;-51
2023/08/02 12:44:26;;;;;;;0.68;0.38;;;;;;;;;;5111845;28;20431;-51
2023/08/02 12:46:53;;;;;;;0.70;0.40;;;;;;;;;;5112872;28;20070;-45
2023/08/02 12:49:20;;;;;;;0.60;0.20;;;;;;;;;;5110619;28;20047;-45
2023/08/02 12:51:46;;;;;;;0.70;0.28;;;;;;;;;;5112362;28;20055;-44
2023/08/02 12:54:13;;;;;;;0.50;0.22;;;;;;;;;;5111595;28;20048;-45
2023/08/02 12:56:40;;;;;;;0.77;0.25;;;;;;;;;;5111791;28;20050;-45
2023/08/02 12:59:07;;;;;;;0.30;0.20;;;;;;;;;;5111795;28;20056;-45
2023/08/02 13:01:35;;;;;;;1.25;0.22;;;;;;;;;;5112432;28;20055;-58
2023/08/02 13:04:02;;;;;;;0.85;0.30;;;;;;;;;;5111643;28;20048;-58
2023/08/02 13:06:28;;;;;;;0.73;0.30;;;;;;;;;;5111239;28;20067;-58
2023/08/02 13:08:55;;;;;;;1.02;0.57;;;;;;;;;;5111795;28;20058;-58
2023/08/02 13:11:22;;;;;;;0.52;0.30;;;;;;;;;;5111274;28;20423;-58
2023/08/02 13:13:49;;;;;;;0.45;0.30;;;;;;;;;;5111453;28;20043;-58
2023/08/02 13:16:15;;;;;;;0.55;0.30;;;;;;;;;;5111343;28;20044;-58
2023/08/02 13:18:44;;;;;;;1.92;0.70;;;;;;;;;;5111902;28;20117;-58
2023/08/02 13:21:10;;;;;;;7.57;0.82;;;;;;;;;;5111762;28;20048;-58
2023/08/02 13:23:37;;;;;;;1.23;0.80;;;;;;;;;;5124625;28;20514;-58
2023/08/02 13:26:04;;;;;;;4.60;1.10;;;;;;;;;;5116433;27;20052;-59
2023/08/02 13:28:31;;;;;;;3.03;1.65;;;;;;;;;;5116348;28;20051;-58
2023/08/02 13:30:58;;;;;;;1.95;1.20;;;;;;;;;;5115854;28;20357;-58
2023/08/02 13:33:25;;;;;;;5.13;1.48;;;;;;;;;;5115426;28;20051;-58
2023/08/02 13:35:53;;;;;;;4.28;2.38;;;;;;;;;;5114801;28;20062;-60
2023/08/02 13:38:20;;;;;;;16.67;3.00;;;;;;;;;;5113502;28;20055;-59
2023/08/02 13:40:47;;;;;;;6.32;2.83;;;;;;;;;;5114967;28;20070;-58
2023/08/02 13:43:14;;;;;;;64.35;6.57;;;;;;;;;;5115225;27;20048;-59
2023/08/02 13:45:41;;;;;;;4.93;2.70;;;;;;;;;;5114995;28;20047;-59
2023/08/02 13:48:07;;;;;;;3.95;2.47;;;;;;;;;;5115180;27;20059;-59
2023/08/02 13:50:37;;;;;;;2.42;1.52;;;;;;;;;;5115089;28;20044;-58
2023/08/02 13:53:06;;;;;;;2.65;1.50;;;;;;;;;;5115818;28;20055;-59
2023/08/02 13:55:32;;;;;;;3.03;1.60;;;;;;;;;;5115194;28;20046;-58
2023/08/02 13:57:59;;;;;;;3.50;1.65;;;;;;;;;;5115577;27;20476;-59
2023/08/02 14:00:26;;;;;;;3.20;1.75;;;;;;;;;;5115633;28;20129;-59
2023/08/02 14:02:53;;;;;;;2.25;1.50;;;;;;;;;;5115299;28;20412;-62
2023/08/02 14:05:20;;;;;;;2.03;1.20;;;;;;;;;;5114710;28;20058;-62
2023/08/02 14:07:46;;;;;;;2.53;1.30;;;;;;;;;;5114705;28;20059;-62
2023/08/02 14:10:16;;;;;;;2.15;1.63;;;;;;;;;;5115388;28;20051;-62
2023/08/02 14:12:43;;;;;;;2.28;1.65;;;;;;;;;;5113250;28;20056;-62
2023/08/02 14:15:10;;;;;;;2.17;1.30;;;;;;;;;;5114845;28;20048;-62
2023/08/02 14:17:37;;;;;;;2.90;1.30;;;;;;;;;;5113470;28;20058;-62
2023/08/02 14:20:04;;;;;;;2.92;1.40;;;;;;;;;;5114525;28;20058;-62
2023/08/02 14:22:34;;;;;;;2.65;1.33;;;;;;;;;;5114514;28;20055;-62
2023/08/02 14:25:03;;;;;;;;;;;;;;;;;;5115842;28;20047;-62
2023/08/02 14:27:31;;;;;;;2.80;1.13;;;;;;;;;;5113903;27;19920;-62
2023/08/02 14:29:58;;;;;;;2.67;1.20;;;;;;;;;;5114916;28;20056;-61
2023/08/02 14:32:24;;;;;;;2.75;1.35;;;;;;;;;;5113917;28;20051;-61
2023/08/02 14:34:51;;;;;;;3.67;1.80;;;;;;;;;;5114510;28;20044;-61
2023/08/02 14:37:18;;;;;;;2.10;1.30;;;;;;;;;;5111325;28;20082;-62
2023/08/02 14:39:45;;;;;;;2.42;1.30;;;;;;;;;;5114062;28;20051;-62
2023/08/02 14:42:14;;;;;;;2.55;1.48;;;;;;;;;;5105963;28;20058;-61
2023/08/02 14:44:44;;;;;;;2.53;1.50;;;;;;;;;;5114834;28;20396;-61
2023/08/02 14:47:13;;;;;;;3.80;1.50;;;;;;;;;;5109059;28;20052;-59